Time,TemperatureF,DewpointF,PressureIn,WindDirection,WindDirectionDegrees,WindSpeedMPH,WindSpeedGustMPH,Humidity,HourlyPrecipIn,Conditions,Clouds,dailyrainin,SoftwareType,DateUTC
2013-01-20 00:04:00,36.0,28.0,30.22,WSW,241,2.0,4.0,72,0.00,,,0.00,,2013-01-20 05:04:00,
2013-01-20 00:12:00,36.0,28.0,30.22,WSW,241,2.0,4.0,72,0.00,,,0.00,,2013-01-20 05:12:00,
2013-01-20 00:23:00,36.0,28.0,30.21,WSW,251,3.0,5.0,71,0.00,,,0.00,,2013-01-20 05:23:00,
2013-01-20 00:33:00,35.0,26.0,30.21,WSW,239,0.0,1.0,70,0.00,,,0.00,,2013-01-20 05:33:00,
2013-01-20 00:43:00,35.0,26.0,30.21,WSW,239,0.0,1.0,70,0.00,,,0.00,,2013-01-20 05:43:00,
2013-01-20 00:53:00,36.0,28.0,30.20,WSW,250,0.0,4.0,71,0.00,,,0.00,,2013-01-20 05:53:00,
2013-01-20 01:02:00,35.0,26.0,30.21,WSW,249,1.0,3.0,70,0.00,,,0.00,,2013-01-20 06:02:00,
2013-01-20 01:12:00,35.0,26.0,30.21,WSW,249,1.0,3.0,70,0.00,,,0.00,,2013-01-20 06:12:00,
2013-01-20 01:22:00,35.0,26.0,30.21,WSW,249,1.0,3.0,70,0.00,,,0.00,,2013-01-20 06:22:00,
2013-01-20 01:33:00,35.0,27.0,30.20,SW,219,2.0,4.0,72,0.00,,,0.00,,2013-01-20 06:33:00,
2013-01-20 01:43:00,35.0,27.0,30.20,SW,219,2.0,4.0,72,0.00,,,0.00,,2013-01-20 06:43:00,
2013-01-20 01:53:00,36.0,28.0,30.20,WSW,237,3.0,5.0,71,0.00,,,0.00,,2013-01-20 06:53:00,
2013-01-20 02:02:00,36.0,27.0,30.20,WSW,238,2.0,4.0,69,0.00,,,0.00,,2013-01-20 07:02:00,
2013-01-20 02:12:00,36.0,27.0,30.20,WSW,238,2.0,4.0,69,0.00,,,0.00,,2013-01-20 07:12:00,
2013-01-20 02:22:00,36.0,27.0,30.19,WSW,251,3.0,5.0,70,0.00,,,0.00,,2013-01-20 07:22:00,
2013-01-20 02:32:00,35.0,27.0,30.19,SW,223,2.0,4.0,72,0.00,,,0.00,,2013-01-20 07:32:00,
2013-01-20 02:42:00,35.0,27.0,30.19,SW,223,2.0,4.0,72,0.00,,,0.00,,2013-01-20 07:42:00,
2013-01-20 02:52:00,35.0,27.0,30.19,SW,223,2.0,4.0,72,0.00,,,0.00,,2013-01-20 07:52:00,
2013-01-20 03:02:00,36.0,27.0,30.19,WSW,249,3.0,5.0,69,0.00,,,0.00,,2013-01-20 08:02:00,
2013-01-20 03:12:00,36.0,27.0,30.19,WSW,249,3.0,5.0,69,0.00,,,0.00,,2013-01-20 08:12:00,
2013-01-20 03:22:00,35.0,25.0,30.19,WSW,243,1.0,5.0,66,0.00,,,0.00,,2013-01-20 08:22:00,
2013-01-20 03:32:00,35.0,26.0,30.19,WSW,246,2.0,4.0,70,0.00,,,0.00,,2013-01-20 08:32:00,
2013-01-20 03:42:00,35.0,26.0,30.19,WSW,246,2.0,4.0,70,0.00,,,0.00,,2013-01-20 08:42:00,
2013-01-20 03:52:00,35.0,26.0,30.19,WSW,241,0.0,4.0,69,0.00,,,0.00,,2013-01-20 08:52:00,
2013-01-20 04:02:00,35.0,26.0,30.19,WSW,251,1.0,4.0,69,0.00,,,0.00,,2013-01-20 09:02:00,
2013-01-20 04:12:00,35.0,26.0,30.19,WSW,251,1.0,4.0,69,0.00,,,0.00,,2013-01-20 09:12:00,
2013-01-20 04:22:00,35.0,26.0,30.19,WSW,243,1.0,3.0,68,0.00,,,0.00,,2013-01-20 09:22:00,
2013-01-20 04:33:00,35.0,26.0,30.18,SW,229,1.0,4.0,69,0.00,,,0.00,,2013-01-20 09:33:00,
2013-01-20 04:42:00,35.0,26.0,30.18,SW,229,1.0,4.0,69,0.00,,,0.00,,2013-01-20 09:42:00,
2013-01-20 04:52:00,35.0,25.0,30.18,WSW,247,1.0,4.0,66,0.00,,,0.00,,2013-01-20 09:52:00,
2013-01-20 05:03:00,35.0,22.0,30.17,SW,219,1.0,5.0,59,0.00,,,0.00,,2013-01-20 10:03:00,
2013-01-20 05:12:00,35.0,22.0,30.17,SW,219,1.0,5.0,59,0.00,,,0.00,,2013-01-20 10:12:00,
2013-01-20 05:23:00,38.0,25.0,30.18,West,264,1.0,8.0,60,0.00,,,0.00,,2013-01-20 10:23:00,
2013-01-20 05:32:00,39.0,26.0,30.17,South,187,0.0,6.0,59,0.00,,,0.00,,2013-01-20 10:32:00,
2013-01-20 05:42:00,39.0,26.0,30.17,South,187,0.0,6.0,59,0.00,,,0.00,,2013-01-20 10:42:00,
2013-01-20 05:52:00,38.0,26.0,30.18,SW,232,1.0,4.0,62,0.00,,,0.00,,2013-01-20 10:52:00,
2013-01-20 06:03:00,38.0,27.0,30.17,WSW,247,0.0,3.0,64,0.00,,,0.00,,2013-01-20 11:03:00,
2013-01-20 06:12:00,38.0,27.0,30.17,WSW,247,0.0,3.0,64,0.00,,,0.00,,2013-01-20 11:12:00,
2013-01-20 06:22:00,39.0,28.0,30.17,WSW,239,0.0,6.0,64,0.00,,,0.00,,2013-01-20 11:22:00,
2013-01-20 06:33:00,40.0,28.0,30.17,ENE,72,1.0,4.0,63,0.00,,,0.00,,2013-01-20 11:33:00,
2013-01-20 06:43:00,40.0,28.0,30.17,ENE,72,1.0,4.0,63,0.00,,,0.00,,2013-01-20 11:43:00,
2013-01-20 06:53:00,40.0,29.0,30.17,East,80,1.0,5.0,64,0.00,,,0.00,,2013-01-20 11:53:00,
2013-01-20 07:03:00,41.0,30.0,30.17,ENE,77,0.0,5.0,65,0.00,,,0.00,,2013-01-20 12:03:00,
2013-01-20 07:13:00,41.0,30.0,30.17,ENE,77,0.0,5.0,65,0.00,,,0.00,,2013-01-20 12:13:00,
2013-01-20 07:23:00,39.0,30.0,30.17,West,266,2.0,6.0,69,0.00,,,0.00,,2013-01-20 12:23:00,
2013-01-20 07:33:00,39.0,30.0,30.18,NW,322,0.0,4.0,70,0.00,,,0.00,,2013-01-20 12:33:00,
2013-01-20 07:43:00,39.0,30.0,30.18,NW,322,0.0,4.0,70,0.00,,,0.00,,2013-01-20 12:43:00,
2013-01-20 07:52:00,39.0,30.0,30.18,WSW,249,1.0,5.0,70,0.00,,,0.00,,2013-01-20 12:52:00,
2013-01-20 08:03:00,38.0,30.0,30.18,WSW,258,1.0,4.0,73,0.00,,,0.00,,2013-01-20 13:03:00,
2013-01-20 08:12:00,38.0,30.0,30.18,WSW,258,1.0,4.0,73,0.00,,,0.00,,2013-01-20 13:12:00,
2013-01-20 08:23:00,38.0,30.0,30.18,West,263,0.0,5.0,73,0.00,,,0.00,,2013-01-20 13:23:00,
2013-01-20 08:33:00,38.0,30.0,30.18,ENE,75,0.0,3.0,73,0.00,,,0.00,,2013-01-20 13:33:00,
2013-01-20 08:43:00,38.0,30.0,30.18,ENE,75,0.0,3.0,73,0.00,,,0.00,,2013-01-20 13:43:00,
2013-01-20 08:52:00,38.0,30.0,30.19,SW,220,0.0,5.0,73,0.00,,,0.00,,2013-01-20 13:52:00,
2013-01-20 09:03:00,39.0,30.0,30.19,ESE,118,1.0,6.0,69,0.00,,,0.00,,2013-01-20 14:03:00,
2013-01-20 09:12:00,39.0,30.0,30.19,ESE,118,1.0,6.0,69,0.00,,,0.00,,2013-01-20 14:12:00,
2013-01-20 09:23:00,40.0,30.0,30.19,ESE,109,1.0,9.0,67,0.00,,,0.00,,2013-01-20 14:23:00,
2013-01-20 09:33:00,41.0,31.0,30.19,ESE,120,3.0,9.0,67,0.00,,,0.00,,2013-01-20 14:33:00,
2013-01-20 09:43:00,41.0,31.0,30.19,ESE,120,3.0,9.0,67,0.00,,,0.00,,2013-01-20 14:43:00,
2013-01-20 09:53:00,41.0,31.0,30.19,East,97,1.0,10.0,67,0.00,,,0.00,,2013-01-20 14:53:00,
2013-01-20 10:04:00,43.0,32.0,30.19,East,95,1.0,4.0,65,0.00,,,0.00,,2013-01-20 15:04:00,
2013-01-20 10:13:00,43.0,32.0,30.19,East,95,1.0,4.0,65,0.00,,,0.00,,2013-01-20 15:13:00,
2013-01-20 10:23:00,44.0,33.0,30.19,East,92,1.0,10.0,65,0.00,,,0.00,,2013-01-20 15:23:00,
2013-01-20 10:33:00,45.0,33.0,30.19,SE,143,1.0,9.0,63,0.00,,,0.00,,2013-01-20 15:33:00,
2013-01-20 10:43:00,45.0,33.0,30.19,SE,143,1.0,9.0,63,0.00,,,0.00,,2013-01-20 15:43:00,
2013-01-20 10:53:00,46.0,33.0,30.18,SSE,151,1.0,6.0,61,0.00,,,0.00,,2013-01-20 15:53:00,
2013-01-20 11:03:00,46.0,32.0,30.18,SE,134,2.0,5.0,59,0.00,,,0.00,,2013-01-20 16:03:00,
2013-01-20 11:12:00,46.0,32.0,30.18,SE,134,2.0,5.0,59,0.00,,,0.00,,2013-01-20 16:12:00,
2013-01-20 11:23:00,47.0,34.0,30.18,SSE,161,1.0,8.0,60,0.00,,,0.00,,2013-01-20 16:23:00,
2013-01-20 11:33:00,47.0,33.0,30.18,SSE,163,4.0,10.0,58,0.00,,,0.00,,2013-01-20 16:33:00,
2013-01-20 11:43:00,47.0,33.0,30.18,SSE,163,4.0,10.0,58,0.00,,,0.00,,2013-01-20 16:43:00,
2013-01-20 11:52:00,47.0,33.0,30.17,SE,132,3.0,9.0,59,0.00,,,0.00,,2013-01-20 16:52:00,
2013-01-20 12:03:00,49.0,34.0,30.16,East,79,0.0,8.0,55,0.00,,,0.00,,2013-01-20 17:03:00,
2013-01-20 12:13:00,49.0,34.0,30.16,East,79,0.0,8.0,55,0.00,,,0.00,,2013-01-20 17:13:00,
2013-01-20 12:22:00,49.0,34.0,30.16,SSE,160,4.0,9.0,55,0.00,,,0.00,,2013-01-20 17:22:00,
2013-01-20 12:33:00,49.0,33.0,30.15,ESE,102,2.0,11.0,53,0.00,,,0.00,,2013-01-20 17:33:00,
2013-01-20 12:43:00,49.0,33.0,30.15,ESE,102,2.0,11.0,53,0.00,,,0.00,,2013-01-20 17:43:00,
2013-01-20 12:52:00,50.0,34.0,30.15,ENE,66,2.0,8.0,54,0.00,,,0.00,,2013-01-20 17:52:00,
2013-01-20 13:03:00,50.0,34.0,30.15,ENE,66,2.0,8.0,54,0.00,,,0.00,,2013-01-20 18:03:00,
2013-01-20 13:13:00,50.0,34.0,30.15,ENE,66,2.0,8.0,54,0.00,,,0.00,,2013-01-20 18:13:00,
2013-01-20 13:23:00,49.0,31.0,30.13,East,95,2.0,5.0,50,0.00,,,0.00,,2013-01-20 18:23:00,
2013-01-20 13:33:00,50.0,32.0,30.13,SSE,158,1.0,6.0,50,0.00,,,0.00,,2013-01-20 18:33:00,
2013-01-20 13:43:00,50.0,32.0,30.13,SSE,158,1.0,6.0,50,0.00,,,0.00,,2013-01-20 18:43:00,
2013-01-20 13:53:00,50.0,31.0,30.12,South,187,3.0,11.0,47,0.00,,,0.00,,2013-01-20 18:53:00,
2013-01-20 14:03:00,50.0,30.0,30.12,SSE,162,7.0,14.0,46,0.00,,,0.00,,2013-01-20 19:03:00,
2013-01-20 14:12:00,50.0,30.0,30.12,SSE,162,7.0,14.0,46,0.00,,,0.00,,2013-01-20 19:12:00,
2013-01-20 14:23:00,50.0,29.0,30.11,SE,133,2.0,8.0,45,0.00,,,0.00,,2013-01-20 19:23:00,
2013-01-20 14:33:00,50.0,30.0,30.11,SE,137,2.0,10.0,46,0.00,,,0.00,,2013-01-20 19:33:00,
2013-01-20 14:43:00,50.0,30.0,30.11,SE,137,2.0,10.0,46,0.00,,,0.00,,2013-01-20 19:43:00,
2013-01-20 14:52:00,50.0,30.0,30.11,East,85,5.0,12.0,46,0.00,,,0.00,,2013-01-20 19:52:00,
2013-01-20 15:03:00,50.0,28.0,30.11,South,175,2.0,14.0,42,0.00,,,0.00,,2013-01-20 20:03:00,
2013-01-20 15:12:00,50.0,28.0,30.11,South,175,2.0,14.0,42,0.00,,,0.00,,2013-01-20 20:12:00,
2013-01-20 15:23:00,50.0,27.0,30.11,East,89,2.0,9.0,41,0.00,,,0.00,,2013-01-20 20:23:00,
2013-01-20 15:33:00,50.0,28.0,30.10,ESE,111,2.0,4.0,43,0.00,,,0.00,,2013-01-20 20:33:00,
2013-01-20 15:42:00,50.0,28.0,30.10,ESE,111,2.0,4.0,43,0.00,,,0.00,,2013-01-20 20:42:00,
2013-01-20 15:53:00,50.0,29.0,30.10,ESE,106,1.0,8.0,44,0.00,,,0.00,,2013-01-20 20:53:00,
2013-01-20 16:04:00,49.0,29.0,30.11,SE,124,3.0,11.0,45,0.00,,,0.00,,2013-01-20 21:04:00,
2013-01-20 16:13:00,49.0,29.0,30.11,SE,124,3.0,11.0,45,0.00,,,0.00,,2013-01-20 21:13:00,
2013-01-20 16:23:00,49.0,29.0,30.11,ESE,104,3.0,7.0,46,0.00,,,0.00,,2013-01-20 21:23:00,
2013-01-20 16:33:00,48.0,28.0,30.12,SW,224,4.0,11.0,46,0.00,,,0.00,,2013-01-20 21:33:00,
2013-01-20 16:43:00,48.0,28.0,30.12,SW,224,4.0,11.0,46,0.00,,,0.00,,2013-01-20 21:43:00,
2013-01-20 16:53:00,47.0,28.0,30.12,SSW,208,6.0,12.0,47,0.00,,,0.00,,2013-01-20 21:53:00,
2013-01-20 17:03:00,46.0,30.0,30.12,SW,221,0.0,8.0,54,0.00,,,0.00,,2013-01-20 22:03:00,
2013-01-20 17:13:00,46.0,30.0,30.12,SW,221,0.0,8.0,54,0.00,,,0.00,,2013-01-20 22:13:00,
2013-01-20 17:23:00,46.0,29.0,30.13,SE,135,0.0,5.0,52,0.00,,,0.00,,2013-01-20 22:23:00,
2013-01-20 17:33:00,45.0,29.0,30.13,SSE,168,0.0,5.0,53,0.00,,,0.00,,2013-01-20 22:33:00,
2013-01-20 17:43:00,45.0,29.0,30.13,SSE,168,0.0,5.0,53,0.00,,,0.00,,2013-01-20 22:43:00,
2013-01-20 17:52:00,44.0,29.0,30.13,South,190,0.0,5.0,56,0.00,,,0.00,,2013-01-20 22:52:00,
2013-01-20 18:03:00,43.0,30.0,30.13,SE,128,0.0,5.0,60,0.00,,,0.00,,2013-01-20 23:03:00,
2013-01-20 18:13:00,43.0,30.0,30.13,SE,128,0.0,5.0,60,0.00,,,0.00,,2013-01-20 23:13:00,
2013-01-20 18:23:00,43.0,30.0,30.14,WSW,245,1.0,6.0,61,0.00,,,0.00,,2013-01-20 23:23:00,
2013-01-20 18:33:00,41.0,30.0,30.14,West,275,2.0,4.0,65,0.00,,,0.00,,2013-01-20 23:33:00,
2013-01-20 18:43:00,41.0,30.0,30.14,West,275,2.0,4.0,65,0.00,,,0.00,,2013-01-20 23:43:00,
2013-01-20 18:53:00,40.0,30.0,30.14,West,259,2.0,5.0,67,0.00,,,0.00,,2013-01-20 23:53:00,
2013-01-20 19:03:00,40.0,30.0,30.14,West,259,1.0,5.0,68,0.00,,,0.00,,2013-01-21 00:03:00,
2013-01-20 19:13:00,40.0,30.0,30.14,West,259,1.0,5.0,68,0.00,,,0.00,,2013-01-21 00:13:00,
2013-01-20 19:23:00,39.0,30.0,30.14,West,262,3.0,5.0,70,0.00,,,0.00,,2013-01-21 00:23:00,
2013-01-20 19:33:00,39.0,30.0,30.15,West,264,1.0,5.0,69,0.00,,,0.00,,2013-01-21 00:33:00,
2013-01-20 19:43:00,39.0,30.0,30.15,West,264,1.0,5.0,69,0.00,,,0.00,,2013-01-21 00:43:00,
2013-01-20 19:53:00,39.0,29.0,30.15,West,267,1.0,5.0,68,0.00,,,0.00,,2013-01-21 00:53:00,
2013-01-20 20:03:00,39.0,30.0,30.15,West,265,2.0,4.0,71,0.00,,,0.00,,2013-01-21 01:03:00,
2013-01-20 20:13:00,39.0,30.0,30.15,West,265,2.0,4.0,71,0.00,,,0.00,,2013-01-21 01:13:00,
2013-01-20 20:23:00,38.0,29.0,30.15,West,264,0.0,4.0,70,0.00,,,0.00,,2013-01-21 01:23:00,
2013-01-20 20:33:00,38.0,29.0,30.15,West,266,0.0,4.0,70,0.00,,,0.00,,2013-01-21 01:33:00,
2013-01-20 20:43:00,38.0,29.0,30.15,West,266,0.0,4.0,70,0.00,,,0.00,,2013-01-21 01:43:00,
2013-01-20 20:53:00,39.0,30.0,30.15,WSW,249,2.0,5.0,71,0.00,,,0.00,,2013-01-21 01:53:00,
2013-01-20 21:03:00,38.0,29.0,30.15,WSW,251,2.0,4.0,71,0.00,,,0.00,,2013-01-21 02:03:00,
2013-01-20 21:13:00,38.0,29.0,30.15,WSW,251,2.0,4.0,71,0.00,,,0.00,,2013-01-21 02:13:00,
2013-01-20 21:23:00,38.0,29.0,30.15,WSW,251,2.0,4.0,71,0.00,,,0.00,,2013-01-21 02:23:00,
2013-01-20 21:33:00,38.0,30.0,30.14,West,264,2.0,4.0,72,0.00,,,0.00,,2013-01-21 02:33:00,
2013-01-20 21:43:00,38.0,30.0,30.14,West,264,2.0,4.0,72,0.00,,,0.00,,2013-01-21 02:43:00,
2013-01-20 21:53:00,38.0,29.0,30.13,SW,218,1.0,5.0,70,0.00,,,0.00,,2013-01-21 02:53:00,
2013-01-20 22:03:00,37.0,29.0,30.13,West,275,2.0,5.0,72,0.00,,,0.00,,2013-01-21 03:03:00,
2013-01-20 22:13:00,37.0,29.0,30.13,West,275,2.0,5.0,72,0.00,,,0.00,,2013-01-21 03:13:00,
2013-01-20 22:23:00,37.0,29.0,30.13,West,266,3.0,4.0,74,0.00,,,0.00,,2013-01-21 03:23:00,
2013-01-20 22:33:00,36.0,29.0,30.13,WSW,238,2.0,5.0,74,0.00,,,0.00,,2013-01-21 03:33:00,
2013-01-20 22:43:00,36.0,29.0,30.13,WSW,238,2.0,5.0,74,0.00,,,0.00,,2013-01-21 03:43:00,
2013-01-20 22:53:00,36.0,29.0,30.13,WSW,245,3.0,5.0,77,0.00,,,0.00,,2013-01-21 03:53:00,
2013-01-20 23:03:00,36.0,29.0,30.12,West,260,3.0,5.0,77,0.00,,,0.00,,2013-01-21 04:03:00,
2013-01-20 23:13:00,36.0,29.0,30.12,West,260,3.0,5.0,77,0.00,,,0.00,,2013-01-21 04:13:00,
2013-01-20 23:23:00,36.0,29.0,30.12,West,264,2.0,4.0,74,0.00,,,0.00,,2013-01-21 04:23:00,
2013-01-20 23:33:00,35.0,28.0,30.12,WSW,255,2.0,4.0,76,0.00,,,0.00,,2013-01-21 04:33:00,
2013-01-20 23:43:00,35.0,28.0,30.12,WSW,255,2.0,4.0,76,0.00,,,0.00,,2013-01-21 04:43:00,
2013-01-20 23:53:00,35.0,28.0,30.12,SW,234,3.0,5.0,75,0.00,,,0.00,,2013-01-21 04:53:00,